sensor_id;sensor_type;location;lat;lon;timestamp;P1;durP1;ratioP1;P2;durP2;ratioP2
72439;SDS011;60446;50.752;4.352;2023-03-22T00:01:16;14.70;;;4.27;;
72439;SDS011;60446;50.752;4.352;2023-03-22T00:03:46;10.13;;;3.20;;
72439;SDS011;60446;50.752;4.352;2023-03-22T00:06:15;11.65;;;4.10;;
72439;SDS011;60446;50.752;4.352;2023-03-22T00:08:43;11.82;;;3.60;;
72439;SDS011;60446;50.752;4.352;2023-03-22T00:11:11;10.07;;;3.58;;
72439;SDS011;60446;50.752;4.352;2023-03-22T00:13:38;9.70;;;3.40;;
72439;SDS011;60446;50.752;4.352;2023-03-22T00:16:08;12.27;;;4.00;;
72439;SDS011;60446;50.752;4.352;2023-03-22T00:18:36;11.75;;;4.28;;
72439;SDS011;60446;50.752;4.352;2023-03-22T00:21:03;12.27;;;3.55;;
72439;SDS011;60446;50.752;4.352;2023-03-22T00:23:31;11.43;;;3.55;;
72439;SDS011;60446;50.752;4.352;2023-03-22T00:25:58;10.77;;;3.57;;
72439;SDS011;60446;50.752;4.352;2023-03-22T00:28:25;12.40;;;3.28;;
72439;SDS011;60446;50.752;4.352;2023-03-22T00:31:02;11.63;;;3.35;;
72439;SDS011;60446;50.752;4.352;2023-03-22T00:33:31;12.02;;;3.28;;
72439;SDS011;60446;50.752;4.352;2023-03-22T00:36:03;11.93;;;3.60;;
72439;SDS011;60446;50.752;4.352;2023-03-22T00:38:33;10.20;;;3.43;;
72439;SDS011;60446;50.752;4.352;2023-03-22T00:41:10;10.85;;;3.83;;
72439;SDS011;60446;50.752;4.352;2023-03-22T00:43:43;11.25;;;3.55;;
72439;SDS011;60446;50.752;4.352;2023-03-22T00:46:12;9.23;;;3.47;;
72439;SDS011;60446;50.752;4.352;2023-03-22T00:48:41;11.15;;;3.40;;
72439;SDS011;60446;50.752;4.352;2023-03-22T00:51:09;12.20;;;3.50;;
72439;SDS011;60446;50.752;4.352;2023-03-22T00:53:38;11.27;;;3.25;;
72439;SDS011;60446;50.752;4.352;2023-03-22T00:56:09;13.75;;;3.22;;
72439;SDS011;60446;50.752;4.352;2023-03-22T00:58:53;11.57;;;3.20;;
72439;SDS011;60446;50.752;4.352;2023-03-22T01:01:21;8.70;;;3.50;;
72439;SDS011;60446;50.752;4.352;2023-03-22T01:03:48;9.63;;;3.30;;
72439;SDS011;60446;50.752;4.352;2023-03-22T01:06:16;11.70;;;3.10;;
72439;SDS011;60446;50.752;4.352;2023-03-22T01:08:44;9.93;;;2.92;;
72439;SDS011;60446;50.752;4.352;2023-03-22T01:11:11;12.05;;;3.70;;
72439;SDS011;60446;50.752;4.352;2023-03-22T01:13:38;11.48;;;3.00;;
72439;SDS011;60446;50.752;4.352;2023-03-22T01:16:07;6.20;;;2.23;;
72439;SDS011;60446;50.752;4.352;2023-03-22T01:18:36;8.13;;;2.90;;
72439;SDS011;60446;50.752;4.352;2023-03-22T01:21:03;9.30;;;3.13;;
72439;SDS011;60446;50.752;4.352;2023-03-22T01:23:32;9.55;;;2.70;;
72439;SDS011;60446;50.752;4.352;2023-03-22T01:25:59;11.00;;;3.28;;
72439;SDS011;60446;50.752;4.352;2023-03-22T01:28:27;9.27;;;2.57;;
72439;SDS011;60446;50.752;4.352;2023-03-22T01:30:55;11.00;;;3.00;;
72439;SDS011;60446;50.752;4.352;2023-03-22T01:33:26;12.10;;;3.13;;
72439;SDS011;60446;50.752;4.352;2023-03-22T01:35:54;10.15;;;2.75;;
72439;SDS011;60446;50.752;4.352;2023-03-22T01:38:21;8.07;;;2.78;;
72439;SDS011;60446;50.752;4.352;2023-03-22T01:40:55;9.77;;;2.57;;
72439;SDS011;60446;50.752;4.352;2023-03-22T01:43:24;8.25;;;2.60;;
72439;SDS011;60446;50.752;4.352;2023-03-22T01:45:52;10.27;;;2.47;;
72439;SDS011;60446;50.752;4.352;2023-03-22T01:48:26;9.20;;;2.40;;
72439;SDS011;60446;50.752;4.352;2023-03-22T01:51:01;8.38;;;2.55;;
72439;SDS011;60446;50.752;4.352;2023-03-22T01:53:47;7.57;;;2.53;;
72439;SDS011;60446;50.752;4.352;2023-03-22T01:56:21;8.43;;;2.83;;
72439;SDS011;60446;50.752;4.352;2023-03-22T01:58:51;10.82;;;2.90;;
72439;SDS011;60446;50.752;4.352;2023-03-22T02:01:26;9.48;;;2.20;;
72439;SDS011;60446;50.752;4.352;2023-03-22T02:06:38;10.33;;;2.90;;
72439;SDS011;60446;50.752;4.352;2023-03-22T02:09:14;7.93;;;2.10;;
72439;SDS011;60446;50.752;4.352;2023-03-22T02:11:45;8.98;;;2.30;;
72439;SDS011;60446;50.752;4.352;2023-03-22T02:23:31;9.57;;;2.50;;
72439;SDS011;60446;50.752;4.352;2023-03-22T02:32:09;7.25;;;2.10;;
72439;SDS011;60446;50.752;4.352;2023-03-22T02:46:12;7.45;;;2.13;;
72439;SDS011;60446;50.752;4.352;2023-03-22T02:55:47;10.80;;;1.60;;
72439;SDS011;60446;50.752;4.352;2023-03-22T02:58:34;9.07;;;2.40;;
72439;SDS011;60446;50.752;4.352;2023-03-22T03:03:58;7.10;;;2.10;;
72439;SDS011;60446;50.752;4.352;2023-03-22T03:06:31;7.03;;;1.67;;
72439;SDS011;60446;50.752;4.352;2023-03-22T03:09:05;9.98;;;2.53;;
72439;SDS011;60446;50.752;4.352;2023-03-22T03:11:33;6.17;;;1.63;;
72439;SDS011;60446;50.752;4.352;2023-03-22T03:14:02;9.55;;;1.80;;
72439;SDS011;60446;50.752;4.352;2023-03-22T03:16:31;7.18;;;1.60;;
72439;SDS011;60446;50.752;4.352;2023-03-22T03:19:05;8.75;;;1.30;;
72439;SDS011;60446;50.752;4.352;2023-03-22T03:29:49;9.35;;;1.70;;
72439;SDS011;60446;50.752;4.352;2023-03-22T03:32:34;6.68;;;1.75;;
72439;SDS011;60446;50.752;4.352;2023-03-22T03:35:48;4.72;;;1.33;;
72439;SDS011;60446;50.752;4.352;2023-03-22T03:38:21;9.60;;;2.03;;
72439;SDS011;60446;50.752;4.352;2023-03-22T03:41:16;11.05;;;1.50;;
72439;SDS011;60446;50.752;4.352;2023-03-22T03:43:48;8.82;;;2.28;;
72439;SDS011;60446;50.752;4.352;2023-03-22T03:46:16;8.68;;;2.00;;
72439;SDS011;60446;50.752;4.352;2023-03-22T03:48:45;6.30;;;1.67;;
72439;SDS011;60446;50.752;4.352;2023-03-22T03:51:15;10.97;;;1.30;;
72439;SDS011;60446;50.752;4.352;2023-03-22T03:53:42;12.70;;;2.05;;
72439;SDS011;60446;50.752;4.352;2023-03-22T03:56:09;6.68;;;2.05;;
72439;SDS011;60446;50.752;4.352;2023-03-22T03:58:42;7.28;;;1.63;;
72439;SDS011;60446;50.752;4.352;2023-03-22T04:01:10;7.30;;;1.88;;
72439;SDS011;60446;50.752;4.352;2023-03-22T04:04:00;7.37;;;1.70;;
72439;SDS011;60446;50.752;4.352;2023-03-22T04:06:34;6.63;;;1.90;;
72439;SDS011;60446;50.752;4.352;2023-03-22T04:09:07;7.95;;;1.58;;
72439;SDS011;60446;50.752;4.352;2023-03-22T04:11:39;7.28;;;1.55;;
72439;SDS011;60446;50.752;4.352;2023-03-22T04:14:07;8.45;;;2.17;;
72439;SDS011;60446;50.752;4.352;2023-03-22T04:16:34;11.43;;;2.63;;
72439;SDS011;60446;50.752;4.352;2023-03-22T04:19:02;7.63;;;2.03;;
72439;SDS011;60446;50.752;4.352;2023-03-22T04:21:29;7.93;;;2.30;;
72439;SDS011;60446;50.752;4.352;2023-03-22T04:23:59;8.25;;;1.75;;
72439;SDS011;60446;50.752;4.352;2023-03-22T04:26:30;9.93;;;1.98;;
72439;SDS011;60446;50.752;4.352;2023-03-22T04:29:09;10.17;;;1.90;;
72439;SDS011;60446;50.752;4.352;2023-03-22T04:31:42;9.07;;;2.38;;
72439;SDS011;60446;50.752;4.352;2023-03-22T04:34:18;8.18;;;1.98;;
72439;SDS011;60446;50.752;4.352;2023-03-22T04:36:56;13.02;;;2.58;;
72439;SDS011;60446;50.752;4.352;2023-03-22T04:39:48;11.63;;;2.00;;
72439;SDS011;60446;50.752;4.352;2023-03-22T04:42:29;10.57;;;2.23;;
72439;SDS011;60446;50.752;4.352;2023-03-22T04:45:09;7.82;;;1.83;;
72439;SDS011;60446;50.752;4.352;2023-03-22T04:47:38;9.30;;;2.70;;
72439;SDS011;60446;50.752;4.352;2023-03-22T04:50:06;8.73;;;2.30;;
72439;SDS011;60446;50.752;4.352;2023-03-22T04:52:42;8.70;;;1.95;;
72439;SDS011;60446;50.752;4.352;2023-03-22T04:55:09;9.30;;;1.73;;
72439;SDS011;60446;50.752;4.352;2023-03-22T04:57:36;14.60;;;1.70;;
72439;SDS011;60446;50.752;4.352;2023-03-22T05:00:04;10.02;;;2.25;;
72439;SDS011;60446;50.752;4.352;2023-03-22T05:02:34;5.68;;;1.80;;
72439;SDS011;60446;50.752;4.352;2023-03-22T05:05:12;6.70;;;1.73;;
72439;SDS011;60446;50.752;4.352;2023-03-22T05:07:42;10.83;;;1.90;;
72439;SDS011;60446;50.752;4.352;2023-03-22T05:10:09;8.50;;;1.90;;
72439;SDS011;60446;50.752;4.352;2023-03-22T05:12:38;10.90;;;2.53;;
72439;SDS011;60446;50.752;4.352;2023-03-22T05:15:27;6.35;;;1.50;;
72439;SDS011;60446;50.752;4.352;2023-03-22T05:17:54;9.15;;;2.40;;
72439;SDS011;60446;50.752;4.352;2023-03-22T05:20:22;9.20;;;2.47;;
72439;SDS011;60446;50.752;4.352;2023-03-22T05:23:04;8.55;;;1.92;;
72439;SDS011;60446;50.752;4.352;2023-03-22T05:25:31;8.82;;;2.28;;
72439;SDS011;60446;50.752;4.352;2023-03-22T05:27:59;7.15;;;2.40;;
72439;SDS011;60446;50.752;4.352;2023-03-22T05:30:47;11.73;;;2.35;;
72439;SDS011;60446;50.752;4.352;2023-03-22T05:33:29;13.30;;;2.30;;
72439;SDS011;60446;50.752;4.352;2023-03-22T05:35:57;7.80;;;2.50;;
72439;SDS011;60446;50.752;4.352;2023-03-22T05:38:27;12.57;;;2.53;;
72439;SDS011;60446;50.752;4.352;2023-03-22T05:40:57;9.23;;;2.30;;
72439;SDS011;60446;50.752;4.352;2023-03-22T05:43:25;9.55;;;2.10;;
72439;SDS011;60446;50.752;4.352;2023-03-22T05:45:52;7.27;;;1.60;;
72439;SDS011;60446;50.752;4.352;2023-03-22T05:48:42;6.68;;;2.22;;
72439;SDS011;60446;50.752;4.352;2023-03-22T05:51:11;6.22;;;1.35;;
72439;SDS011;60446;50.752;4.352;2023-03-22T05:53:47;6.35;;;1.73;;
72439;SDS011;60446;50.752;4.352;2023-03-22T05:56:18;11.45;;;1.95;;
72439;SDS011;60446;50.752;4.352;2023-03-22T05:58:53;7.83;;;1.73;;
72439;SDS011;60446;50.752;4.352;2023-03-22T06:01:21;8.93;;;1.00;;
72439;SDS011;60446;50.752;4.352;2023-03-22T06:04:07;6.93;;;1.60;;
72439;SDS011;60446;50.752;4.352;2023-03-22T06:07:06;6.00;;;1.20;;
72439;SDS011;60446;50.752;4.352;2023-03-22T06:09:55;5.07;;;1.05;;
72439;SDS011;60446;50.752;4.352;2023-03-22T06:12:25;5.17;;;1.27;;
72439;SDS011;60446;50.752;4.352;2023-03-22T06:15:01;8.10;;;1.38;;
72439;SDS011;60446;50.752;4.352;2023-03-22T06:17:48;8.05;;;1.63;;
72439;SDS011;60446;50.752;4.352;2023-03-22T06:20:20;9.43;;;1.38;;
72439;SDS011;60446;50.752;4.352;2023-03-22T06:22:53;5.80;;;1.17;;
72439;SDS011;60446;50.752;4.352;2023-03-22T06:25:21;7.90;;;1.10;;
72439;SDS011;60446;50.752;4.352;2023-03-22T06:27:48;7.68;;;1.40;;
72439;SDS011;60446;50.752;4.352;2023-03-22T06:30:16;8.57;;;1.85;;
72439;SDS011;60446;50.752;4.352;2023-03-22T06:33:07;7.25;;;1.42;;
72439;SDS011;60446;50.752;4.352;2023-03-22T06:35:37;7.32;;;1.55;;
72439;SDS011;60446;50.752;4.352;2023-03-22T06:38:07;7.17;;;1.40;;
72439;SDS011;60446;50.752;4.352;2023-03-22T06:40:36;6.20;;;1.70;;
72439;SDS011;60446;50.752;4.352;2023-03-22T06:43:03;6.32;;;1.88;;
72439;SDS011;60446;50.752;4.352;2023-03-22T06:45:34;6.72;;;1.58;;
72439;SDS011;60446;50.752;4.352;2023-03-22T06:48:03;6.35;;;1.48;;
72439;SDS011;60446;50.752;4.352;2023-03-22T06:50:42;7.70;;;1.63;;
72439;SDS011;60446;50.752;4.352;2023-03-22T06:53:13;7.70;;;1.67;;
72439;SDS011;60446;50.752;4.352;2023-03-22T06:55:42;5.82;;;1.40;;
72439;SDS011;60446;50.752;4.352;2023-03-22T06:58:13;8.75;;;2.20;;
72439;SDS011;60446;50.752;4.352;2023-03-22T07:00:40;6.80;;;1.20;;
72439;SDS011;60446;50.752;4.352;2023-03-22T07:03:07;11.33;;;1.37;;
72439;SDS011;60446;50.752;4.352;2023-03-22T07:05:44;5.53;;;1.08;;
72439;SDS011;60446;50.752;4.352;2023-03-22T07:08:12;5.65;;;1.23;;
72439;SDS011;60446;50.752;4.352;2023-03-22T07:10:49;7.88;;;1.88;;
72439;SDS011;60446;50.752;4.352;2023-03-22T07:13:19;8.05;;;1.73;;
72439;SDS011;60446;50.752;4.352;2023-03-22T07:15:48;6.47;;;1.33;;
72439;SDS011;60446;50.752;4.352;2023-03-22T07:18:33;7.88;;;1.05;;
72439;SDS011;60446;50.752;4.352;2023-03-22T07:21:01;7.40;;;1.25;;
72439;SDS011;60446;50.752;4.352;2023-03-22T07:23:29;8.77;;;1.73;;
72439;SDS011;60446;50.752;4.352;2023-03-22T07:26:02;5.40;;;1.10;;
72439;SDS011;60446;50.752;4.352;2023-03-22T07:28:32;4.87;;;1.60;;
72439;SDS011;60446;50.752;4.352;2023-03-22T07:31:04;6.10;;;1.17;;
72439;SDS011;60446;50.752;4.352;2023-03-22T07:33:58;8.85;;;1.40;;
72439;SDS011;60446;50.752;4.352;2023-03-22T07:36:29;6.32;;;1.08;;
72439;SDS011;60446;50.752;4.352;2023-03-22T07:38:56;8.88;;;1.35;;
72439;SDS011;60446;50.752;4.352;2023-03-22T07:41:28;10.63;;;1.50;;
72439;SDS011;60446;50.752;4.352;2023-03-22T07:44:14;8.05;;;1.27;;
72439;SDS011;60446;50.752;4.352;2023-03-22T07:47:19;5.18;;;1.30;;
72439;SDS011;60446;50.752;4.352;2023-03-22T07:50:30;6.80;;;1.73;;
72439;SDS011;60446;50.752;4.352;2023-03-22T07:53:01;5.13;;;1.30;;
72439;SDS011;60446;50.752;4.352;2023-03-22T07:55:29;3.53;;;0.87;;
72439;SDS011;60446;50.752;4.352;2023-03-22T07:57:57;8.85;;;1.63;;
72439;SDS011;60446;50.752;4.352;2023-03-22T08:00:24;8.95;;;1.45;;
72439;SDS011;60446;50.752;4.352;2023-03-22T08:03:11;6.82;;;1.10;;
72439;SDS011;60446;50.752;4.352;2023-03-22T08:05:53;8.25;;;1.55;;
72439;SDS011;60446;50.752;4.352;2023-03-22T08:08:24;8.20;;;1.53;;
72439;SDS011;60446;50.752;4.352;2023-03-22T08:10:52;3.63;;;0.90;;
72439;SDS011;60446;50.752;4.352;2023-03-22T08:13:19;6.97;;;1.27;;
72439;SDS011;60446;50.752;4.352;2023-03-22T08:15:46;6.15;;;1.20;;
72439;SDS011;60446;50.752;4.352;2023-03-22T08:18:13;3.90;;;0.90;;
72439;SDS011;60446;50.752;4.352;2023-03-22T08:20:42;8.60;;;1.27;;
72439;SDS011;60446;50.752;4.352;2023-03-22T08:23:16;10.30;;;1.05;;
72439;SDS011;60446;50.752;4.352;2023-03-22T08:25:45;6.97;;;1.30;;
72439;SDS011;60446;50.752;4.352;2023-03-22T08:28:13;5.47;;;1.42;;
72439;SDS011;60446;50.752;4.352;2023-03-22T08:30:45;3.72;;;0.88;;
72439;SDS011;60446;50.752;4.352;2023-03-22T08:33:13;7.10;;;0.97;;
72439;SDS011;60446;50.752;4.352;2023-03-22T08:35:43;6.28;;;1.13;;
72439;SDS011;60446;50.752;4.352;2023-03-22T08:38:11;4.95;;;1.10;;
72439;SDS011;60446;50.752;4.352;2023-03-22T08:40:45;5.45;;;1.10;;
72439;SDS011;60446;50.752;4.352;2023-03-22T08:43:19;5.53;;;1.00;;
72439;SDS011;60446;50.752;4.352;2023-03-22T08:45:46;7.10;;;1.00;;
72439;SDS011;60446;50.752;4.352;2023-03-22T08:48:17;9.32;;;1.10;;
72439;SDS011;60446;50.752;4.352;2023-03-22T08:51:03;7.07;;;1.60;;
72439;SDS011;60446;50.752;4.352;2023-03-22T08:53:55;7.13;;;1.30;;
72439;SDS011;60446;50.752;4.352;2023-03-22T08:56:45;5.55;;;1.02;;
72439;SDS011;60446;50.752;4.352;2023-03-22T08:59:24;6.07;;;1.20;;
72439;SDS011;60446;50.752;4.352;2023-03-22T09:02:18;11.43;;;1.52;;
72439;SDS011;60446;50.752;4.352;2023-03-22T09:04:46;6.85;;;1.50;;
72439;SDS011;60446;50.752;4.352;2023-03-22T09:07:13;6.13;;;1.20;;
72439;SDS011;60446;50.752;4.352;2023-03-22T09:09:46;8.27;;;0.98;;
72439;SDS011;60446;50.752;4.352;2023-03-22T09:12:13;8.60;;;1.13;;
72439;SDS011;60446;50.752;4.352;2023-03-22T09:14:41;5.57;;;1.20;;
72439;SDS011;60446;50.752;4.352;2023-03-22T09:17:09;7.15;;;1.40;;
72439;SDS011;60446;50.752;4.352;2023-03-22T09:19:36;8.43;;;1.38;;
72439;SDS011;60446;50.752;4.352;2023-03-22T09:22:03;13.55;;;1.70;;
72439;SDS011;60446;50.752;4.352;2023-03-22T09:24:39;11.43;;;1.20;;
72439;SDS011;60446;50.752;4.352;2023-03-22T09:27:06;4.60;;;1.02;;
72439;SDS011;60446;50.752;4.352;2023-03-22T09:29:33;7.05;;;1.20;;
72439;SDS011;60446;50.752;4.352;2023-03-22T09:32:05;9.38;;;1.27;;
72439;SDS011;60446;50.752;4.352;2023-03-22T09:34:35;7.65;;;1.63;;
72439;SDS011;60446;50.752;4.352;2023-03-22T09:37:03;8.00;;;1.13;;
72439;SDS011;60446;50.752;4.352;2023-03-22T09:39:40;6.65;;;1.15;;
72439;SDS011;60446;50.752;4.352;2023-03-22T09:42:35;8.77;;;1.73;;
72439;SDS011;60446;50.752;4.352;2023-03-22T09:45:21;10.48;;;1.17;;
72439;SDS011;60446;50.752;4.352;2023-03-22T09:48:11;4.57;;;0.70;;
72439;SDS011;60446;50.752;4.352;2023-03-22T09:50:47;5.27;;;1.03;;
72439;SDS011;60446;50.752;4.352;2023-03-22T09:53:18;6.80;;;1.10;;
72439;SDS011;60446;50.752;4.352;2023-03-22T09:58:37;3.53;;;0.82;;
72439;SDS011;60446;50.752;4.352;2023-03-22T10:04:22;9.60;;;1.07;;
72439;SDS011;60446;50.752;4.352;2023-03-22T10:07:23;6.07;;;1.13;;
72439;SDS011;60446;50.752;4.352;2023-03-22T10:15:39;4.05;;;1.00;;
72439;SDS011;60446;50.752;4.352;2023-03-22T10:18:19;6.27;;;1.20;;
72439;SDS011;60446;50.752;4.352;2023-03-22T10:26:23;5.35;;;0.90;;
72439;SDS011;60446;50.752;4.352;2023-03-22T10:29:16;6.25;;;0.90;;
72439;SDS011;60446;50.752;4.352;2023-03-22T10:31:47;7.13;;;1.20;;
72439;SDS011;60446;50.752;4.352;2023-03-22T10:34:18;7.68;;;0.80;;
72439;SDS011;60446;50.752;4.352;2023-03-22T10:36:56;5.32;;;1.27;;
72439;SDS011;60446;50.752;4.352;2023-03-22T10:39:37;5.55;;;1.50;;
72439;SDS011;60446;50.752;4.352;2023-03-22T10:42:10;7.90;;;1.27;;
72439;SDS011;60446;50.752;4.352;2023-03-22T10:44:46;5.30;;;0.80;;
72439;SDS011;60446;50.752;4.352;2023-03-22T10:47:37;6.32;;;1.30;;
72439;SDS011;60446;50.752;4.352;2023-03-22T10:50:29;7.45;;;1.60;;
72439;SDS011;60446;50.752;4.352;2023-03-22T10:53:07;3.60;;;0.93;;
72439;SDS011;60446;50.752;4.352;2023-03-22T10:55:47;7.40;;;0.95;;
72439;SDS011;60446;50.752;4.352;2023-03-22T10:58:18;6.93;;;1.20;;
72439;SDS011;60446;50.752;4.352;2023-03-22T11:03:24;6.82;;;1.52;;
72439;SDS011;60446;50.752;4.352;2023-03-22T11:06:04;4.55;;;1.13;;
72439;SDS011;60446;50.752;4.352;2023-03-22T11:16:28;8.13;;;1.40;;
72439;SDS011;60446;50.752;4.352;2023-03-22T11:18:57;6.00;;;1.00;;
72439;SDS011;60446;50.752;4.352;2023-03-22T11:21:28;5.07;;;1.05;;
72439;SDS011;60446;50.752;4.352;2023-03-22T11:24:03;8.63;;;1.20;;
72439;SDS011;60446;50.752;4.352;2023-03-22T11:26:33;7.28;;;1.40;;
72439;SDS011;60446;50.752;4.352;2023-03-22T11:29:15;6.65;;;1.60;;
72439;SDS011;60446;50.752;4.352;2023-03-22T11:31:57;4.18;;;1.35;;
72439;SDS011;60446;50.752;4.352;2023-03-22T11:34:27;6.80;;;1.20;;
72439;SDS011;60446;50.752;4.352;2023-03-22T11:36:59;5.80;;;1.40;;
72439;SDS011;60446;50.752;4.352;2023-03-22T11:39:27;7.78;;;1.45;;
72439;SDS011;60446;50.752;4.352;2023-03-22T11:41:56;6.65;;;1.65;;
72439;SDS011;60446;50.752;4.352;2023-03-22T11:44:27;8.13;;;1.15;;
72439;SDS011;60446;50.752;4.352;2023-03-22T11:47:01;7.18;;;1.38;;
72439;SDS011;60446;50.752;4.352;2023-03-22T11:49:36;6.60;;;1.27;;
72439;SDS011;60446;50.752;4.352;2023-03-22T11:52:09;4.82;;;1.10;;
72439;SDS011;60446;50.752;4.352;2023-03-22T11:54:46;7.63;;;1.65;;
72439;SDS011;60446;50.752;4.352;2023-03-22T11:57:24;5.90;;;1.20;;
72439;SDS011;60446;50.752;4.352;2023-03-22T11:59:56;5.60;;;1.75;;
72439;SDS011;60446;50.752;4.352;2023-03-22T12:02:40;5.50;;;1.13;;
72439;SDS011;60446;50.752;4.352;2023-03-22T12:05:36;5.25;;;1.40;;
72439;SDS011;60446;50.752;4.352;2023-03-22T12:11:04;8.32;;;1.70;;
72439;SDS011;60446;50.752;4.352;2023-03-22T12:16:33;6.30;;;1.67;;
72439;SDS011;60446;50.752;4.352;2023-03-22T12:19:21;7.57;;;1.58;;
72439;SDS011;60446;50.752;4.352;2023-03-22T12:22:14;6.20;;;1.33;;
72439;SDS011;60446;50.752;4.352;2023-03-22T12:24:46;7.25;;;1.38;;
72439;SDS011;60446;50.752;4.352;2023-03-22T12:30:15;9.90;;;2.30;;
72439;SDS011;60446;50.752;4.352;2023-03-22T12:32:58;7.43;;;1.83;;
72439;SDS011;60446;50.752;4.352;2023-03-22T12:35:32;10.30;;;2.17;;
72439;SDS011;60446;50.752;4.352;2023-03-22T12:38:13;9.15;;;1.92;;
72439;SDS011;60446;50.752;4.352;2023-03-22T12:41:01;8.88;;;2.08;;
72439;SDS011;60446;50.752;4.352;2023-03-22T12:46:28;7.40;;;1.67;;
72439;SDS011;60446;50.752;4.352;2023-03-22T12:49:19;7.82;;;1.75;;
72439;SDS011;60446;50.752;4.352;2023-03-22T12:57:52;7.97;;;1.70;;
72439;SDS011;60446;50.752;4.352;2023-03-22T13:00:25;10.63;;;1.60;;
72439;SDS011;60446;50.752;4.352;2023-03-22T13:05:42;5.47;;;1.55;;
72439;SDS011;60446;50.752;4.352;2023-03-22T13:08:12;5.80;;;1.48;;
72439;SDS011;60446;50.752;4.352;2023-03-22T13:10:54;7.80;;;2.07;;
72439;SDS011;60446;50.752;4.352;2023-03-22T13:13:32;9.45;;;1.75;;
72439;SDS011;60446;50.752;4.352;2023-03-22T13:18:55;6.85;;;1.90;;
72439;SDS011;60446;50.752;4.352;2023-03-22T13:21:26;7.20;;;2.10;;
72439;SDS011;60446;50.752;4.352;2023-03-22T13:26:36;7.95;;;1.83;;
72439;SDS011;60446;50.752;4.352;2023-03-22T13:29:24;8.70;;;2.00;;
72439;SDS011;60446;50.752;4.352;2023-03-22T13:32:04;7.30;;;1.88;;
72439;SDS011;60446;50.752;4.352;2023-03-22T13:34:55;8.45;;;1.70;;
72439;SDS011;60446;50.752;4.352;2023-03-22T13:37:28;11.07;;;1.97;;
72439;SDS011;60446;50.752;4.352;2023-03-22T13:40:10;8.30;;;1.92;;
72439;SDS011;60446;50.752;4.352;2023-03-22T13:42:40;7.20;;;1.60;;
72439;SDS011;60446;50.752;4.352;2023-03-22T13:45:16;8.27;;;1.90;;
72439;SDS011;60446;50.752;4.352;2023-03-22T13:48:09;6.47;;;2.08;;
72439;SDS011;60446;50.752;4.352;2023-03-22T13:50:55;10.10;;;2.33;;
72439;SDS011;60446;50.752;4.352;2023-03-22T13:53:27;12.23;;;2.10;;
72439;SDS011;60446;50.752;4.352;2023-03-22T13:55:57;10.20;;;2.10;;
72439;SDS011;60446;50.752;4.352;2023-03-22T13:58:49;8.35;;;2.08;;
72439;SDS011;60446;50.752;4.352;2023-03-22T14:01:38;7.03;;;2.28;;
72439;SDS011;60446;50.752;4.352;2023-03-22T14:04:14;6.40;;;1.87;;
72439;SDS011;60446;50.752;4.352;2023-03-22T14:06:49;9.52;;;2.60;;
72439;SDS011;60446;50.752;4.352;2023-03-22T14:09:38;6.72;;;2.45;;
72439;SDS011;60446;50.752;4.352;2023-03-22T14:12:19;9.35;;;2.63;;
72439;SDS011;60446;50.752;4.352;2023-03-22T14:14:52;8.52;;;1.92;;
72439;SDS011;60446;50.752;4.352;2023-03-22T14:20:20;8.00;;;1.98;;
72439;SDS011;60446;50.752;4.352;2023-03-22T14:22:52;8.18;;;2.42;;
72439;SDS011;60446;50.752;4.352;2023-03-22T14:25:25;10.73;;;2.75;;
72439;SDS011;60446;50.752;4.352;2023-03-22T14:27:55;8.50;;;2.40;;
72439;SDS011;60446;50.752;4.352;2023-03-22T14:32:58;12.27;;;2.53;;
72439;SDS011;60446;50.752;4.352;2023-03-22T14:35:34;11.23;;;3.38;;
72439;SDS011;60446;50.752;4.352;2023-03-22T14:38:04;7.38;;;2.33;;
72439;SDS011;60446;50.752;4.352;2023-03-22T14:40:35;8.20;;;2.38;;
72439;SDS011;60446;50.752;4.352;2023-03-22T14:45:44;8.13;;;2.55;;
72439;SDS011;60446;50.752;4.352;2023-03-22T14:48:28;10.93;;;3.08;;
72439;SDS011;60446;50.752;4.352;2023-03-22T14:51:00;8.52;;;2.65;;
72439;SDS011;60446;50.752;4.352;2023-03-22T14:53:36;5.97;;;2.40;;
72439;SDS011;60446;50.752;4.352;2023-03-22T14:56:04;10.17;;;2.83;;
72439;SDS011;60446;50.752;4.352;2023-03-22T14:58:38;8.25;;;2.72;;
72439;SDS011;60446;50.752;4.352;2023-03-22T15:01:08;7.93;;;2.30;;
72439;SDS011;60446;50.752;4.352;2023-03-22T15:03:41;9.27;;;3.17;;
72439;SDS011;60446;50.752;4.352;2023-03-22T15:06:11;7.28;;;2.33;;
72439;SDS011;60446;50.752;4.352;2023-03-22T15:08:38;9.07;;;2.60;;
72439;SDS011;60446;50.752;4.352;2023-03-22T15:11:06;9.60;;;2.72;;
72439;SDS011;60446;50.752;4.352;2023-03-22T15:13:36;10.23;;;3.25;;
72439;SDS011;60446;50.752;4.352;2023-03-22T15:16:04;9.00;;;2.70;;
72439;SDS011;60446;50.752;4.352;2023-03-22T15:18:32;8.15;;;2.83;;
72439;SDS011;60446;50.752;4.352;2023-03-22T15:21:00;9.33;;;2.87;;
72439;SDS011;60446;50.752;4.352;2023-03-22T15:23:39;9.45;;;2.80;;
72439;SDS011;60446;50.752;4.352;2023-03-22T15:26:17;10.80;;;3.28;;
72439;SDS011;60446;50.752;4.352;2023-03-22T15:28:57;10.07;;;2.65;;
72439;SDS011;60446;50.752;4.352;2023-03-22T15:31:30;9.20;;;2.92;;
72439;SDS011;60446;50.752;4.352;2023-03-22T15:34:06;8.07;;;2.77;;
72439;SDS011;60446;50.752;4.352;2023-03-22T15:36:36;10.90;;;2.78;;
72439;SDS011;60446;50.752;4.352;2023-03-22T15:39:17;8.07;;;3.55;;
72439;SDS011;60446;50.752;4.352;2023-03-22T15:42:26;10.77;;;3.20;;
72439;SDS011;60446;50.752;4.352;2023-03-22T15:45:05;8.30;;;2.38;;
72439;SDS011;60446;50.752;4.352;2023-03-22T15:47:48;10.00;;;2.77;;
72439;SDS011;60446;50.752;4.352;2023-03-22T15:50:27;9.68;;;2.88;;
72439;SDS011;60446;50.752;4.352;2023-03-22T15:52:57;8.52;;;2.85;;
72439;SDS011;60446;50.752;4.352;2023-03-22T15:55:34;7.38;;;2.75;;
72439;SDS011;60446;50.752;4.352;2023-03-22T15:58:16;12.60;;;2.97;;
72439;SDS011;60446;50.752;4.352;2023-03-22T16:00:53;8.43;;;2.70;;
72439;SDS011;60446;50.752;4.352;2023-03-22T16:03:53;8.38;;;2.55;;
72439;SDS011;60446;50.752;4.352;2023-03-22T16:06:25;10.77;;;2.80;;
72439;SDS011;60446;50.752;4.352;2023-03-22T16:08:54;9.70;;;2.67;;
72439;SDS011;60446;50.752;4.352;2023-03-22T16:11:24;13.70;;;2.67;;
72439;SDS011;60446;50.752;4.352;2023-03-22T16:13:52;8.50;;;2.73;;
72439;SDS011;60446;50.752;4.352;2023-03-22T16:16:21;8.20;;;2.33;;
72439;SDS011;60446;50.752;4.352;2023-03-22T16:18:49;8.43;;;2.00;;
72439;SDS011;60446;50.752;4.352;2023-03-22T16:21:17;11.20;;;3.35;;
72439;SDS011;60446;50.752;4.352;2023-03-22T16:23:54;8.85;;;2.17;;
72439;SDS011;60446;50.752;4.352;2023-03-22T16:26:21;8.53;;;2.30;;
72439;SDS011;60446;50.752;4.352;2023-03-22T16:28:47;10.65;;;2.35;;
72439;SDS011;60446;50.752;4.352;2023-03-22T16:31:14;9.20;;;2.80;;
72439;SDS011;60446;50.752;4.352;2023-03-22T16:33:42;9.82;;;2.15;;
72439;SDS011;60446;50.752;4.352;2023-03-22T16:36:11;12.48;;;2.78;;
72439;SDS011;60446;50.752;4.352;2023-03-22T16:38:40;8.67;;;3.00;;
72439;SDS011;60446;50.752;4.352;2023-03-22T16:41:14;9.63;;;2.60;;
72439;SDS011;60446;50.752;4.352;2023-03-22T16:43:46;13.82;;;3.22;;
72439;SDS011;60446;50.752;4.352;2023-03-22T16:46:13;10.43;;;2.92;;
72439;SDS011;60446;50.752;4.352;2023-03-22T16:48:39;9.45;;;2.83;;
72439;SDS011;60446;50.752;4.352;2023-03-22T16:51:17;9.37;;;2.60;;
72439;SDS011;60446;50.752;4.352;2023-03-22T16:53:50;8.82;;;2.60;;
72439;SDS011;60446;50.752;4.352;2023-03-22T16:56:18;8.32;;;3.13;;
72439;SDS011;60446;50.752;4.352;2023-03-22T16:58:48;7.82;;;1.98;;
72439;SDS011;60446;50.752;4.352;2023-03-22T17:01:16;14.38;;;2.95;;
72439;SDS011;60446;50.752;4.352;2023-03-22T17:03:45;10.27;;;2.70;;
72439;SDS011;60446;50.752;4.352;2023-03-22T17:06:14;10.52;;;2.33;;
72439;SDS011;60446;50.752;4.352;2023-03-22T17:08:43;10.20;;;3.35;;
72439;SDS011;60446;50.752;4.352;2023-03-22T17:11:22;10.32;;;2.78;;
72439;SDS011;60446;50.752;4.352;2023-03-22T17:13:52;8.38;;;3.10;;
72439;SDS011;60446;50.752;4.352;2023-03-22T17:16:22;8.93;;;3.07;;